This is the latest recevied weather packets stored in our database for station/object WX3I. If no packets are shown the sender has not sent any weather packets the latest 10 day(s).
| Time | Temp. | Humidity | Pressure | Rain* | Wind** | Luminosity | Snow |
|---|---|---|---|---|---|---|---|
| 1778172304 | 14.44° C | 44% | 1012.2 hPa | 0 mm | - | 1178 W/m² | - |
| 1778171104 | 14.44° C | 47% | 1012.4 hPa | 0 mm | - | 1150 W/m² | - |
| 1778170204 | 13.89° C | 46% | 1012.5 hPa | 0 mm | - | 1122 W/m² | - |
| 1778169304 | 13.89° C | 46% | 1012.6 hPa | 0 mm | - | 1089 W/m² | - |
| 1778168404 | 13.89° C | 46% | 1012.9 hPa | 0 mm | - | 1051 W/m² | - |
| 1778168104 | 13.89° C | 48% | 1012.9 hPa | 0 mm | - | 1038 W/m² | - |
| 1778167204 | 13.33° C | 49% | 1013.1 hPa | 0 mm | - | 994 W/m² | - |
| 1778165105 | 13.33° C | 57% | 1013.6 hPa | 0 mm | - | 878 W/m² | - |
| 1778164505 | 12.78° C | 59% | 1013.6 hPa | 0 mm | - | 842 W/m² | - |
| 1778162404 | 11.67° C | 67% | 1013.8 hPa | 0 mm | - | 709 W/m² | - |
| 1778161804 | 11.11° C | 70% | 1013.8 hPa | 0 mm | - | 670 W/m² | - |
| 1778160604 | 11.11° C | 75% | 1013.7 hPa | 0 mm | - | 590 W/m² | - |
| 1778159404 | 10° C | 80% | 1013.6 hPa | 0 mm | - | 511 W/m² | - |
| 1778159105 | 10° C | 82% | 1013.7 hPa | 0 mm | - | 491 W/m² | - |
| 1778154905 | 9.44° C | 96% | 1013.6 hPa | 0 mm | - | 233 W/m² | - |
| 1778154604 | 9.44° C | 96% | 1013.6 hPa | 0 mm | - | 217 W/m² | - |
| 1778152804 | 9.44° C | 97% | 1013.3 hPa | 0 mm | - | 66 W/m² | - |
| 1778150404 | 9.44° C | 97% | 1012.7 hPa | 0 mm | - | 7 W/m² | - |
| 1778148904 | 9.44° C | 97% | 1012.5 hPa | 0 mm | - | 9 W/m² | - |
| 1778148004 | 9.44° C | 97% | 1012.1 hPa | 0 mm | - | 2 W/m² | - |
| 1778147104 | 9.44° C | 97% | 1012.2 hPa | 0 mm | - | 0 W/m² | - |
| 1778146504 | 9.44° C | 96% | 1012 hPa | 0 mm | - | 0 W/m² | - |
| 1778144404 | 8.89° C | 96% | 1011.6 hPa | 0.76 mm | - | 0 W/m² | - |
| 1778139905 | 8.89° C | 95% | 1012.2 hPa | 3.56 mm | - | 0 W/m² | - |
| 1778136904 | 9.44° C | 95% | 1012.5 hPa | 3.3 mm | - | 0 W/m² | - |
* Rain latest hour (hover to see other rain measurements)
** Current wind speed in m/s (hover to see current wind gust speed)